createdAt,value
2023-01-19T00:01:40.958Z,14.50
2023-01-19T00:04:11.028Z,13.60
2023-01-19T00:06:39.320Z,17.43
2023-01-19T00:09:07.663Z,17.33
2023-01-19T00:11:36.106Z,15.37
2023-01-19T00:14:04.505Z,14.77
2023-01-19T00:16:32.984Z,15.33
2023-01-19T00:19:02.012Z,18.77
2023-01-19T00:21:31.634Z,15.20
2023-01-19T00:24:01.315Z,12.93
2023-01-19T00:26:29.696Z,13.60
2023-01-19T00:28:58.114Z,12.73
2023-01-19T00:31:26.541Z,12.77
2023-01-19T00:33:54.794Z,15.63
2023-01-19T00:36:23.027Z,14.23
2023-01-19T00:38:52.634Z,13.97
2023-01-19T00:41:41.311Z,12.13
2023-01-19T00:44:08.793Z,15.97
2023-01-19T00:46:37.163Z,14.00
2023-01-19T00:49:05.745Z,14.90
2023-01-19T00:51:34.057Z,15.23
2023-01-19T00:54:05.025Z,15.27
2023-01-19T00:56:33.466Z,16.57
2023-01-19T00:59:02.330Z,17.07
2023-01-19T01:01:45.040Z,15.67
2023-01-19T01:04:14.585Z,13.97
2023-01-19T01:06:42.836Z,13.07
2023-01-19T01:09:12.956Z,15.17
2023-01-19T01:11:42.246Z,12.97
2023-01-19T01:14:11.847Z,18.67
2023-01-19T01:16:40.283Z,13.30
2023-01-19T01:19:08.755Z,11.57
2023-01-19T01:21:37.368Z,14.47
2023-01-19T01:24:06.206Z,16.77
2023-01-19T01:26:35.890Z,13.23
2023-01-19T01:29:04.298Z,16.17
2023-01-19T01:31:32.595Z,14.10
2023-01-19T01:34:01.522Z,19.23
2023-01-19T01:36:32.219Z,15.10
2023-01-19T01:39:03.037Z,12.70
2023-01-19T01:41:31.488Z,15.77
2023-01-19T01:44:02.381Z,14.43
2023-01-19T01:46:44.420Z,14.83
2023-01-19T01:49:17.533Z,14.43
2023-01-19T01:51:49.595Z,15.13
2023-01-19T01:54:21.854Z,14.23
2023-01-19T01:56:52.763Z,13.53
2023-01-19T01:59:28.084Z,14.50
2023-01-19T02:02:17.973Z,14.33
2023-01-19T02:04:52.155Z,17.33
2023-01-19T02:07:45.937Z,14.97
2023-01-19T02:10:31.656Z,16.37
2023-01-19T02:13:19.728Z,13.50
2023-01-19T02:15:52.711Z,16.47
2023-01-19T02:18:22.956Z,17.50
2023-01-19T02:21:00.211Z,14.30
2023-01-19T02:23:42.469Z,13.93
2023-01-19T02:26:13.508Z,14.03
2023-01-19T02:28:48.452Z,16.10
2023-01-19T02:31:16.703Z,13.40
2023-01-19T02:33:46.524Z,14.87
2023-01-19T02:36:19.457Z,14.40
2023-01-19T02:38:50.598Z,13.80
2023-01-19T02:41:29.802Z,14.43
2023-01-19T02:43:59.734Z,12.43
2023-01-19T02:46:30.498Z,12.27
2023-01-19T02:49:00.665Z,19.10
2023-01-19T02:51:30.168Z,16.80
2023-01-19T02:54:31.994Z,14.43
2023-01-19T02:57:27.865Z,12.60
2023-01-19T03:00:14.205Z,16.27
2023-01-19T03:02:58.051Z,15.10
2023-01-19T03:05:35.310Z,16.83
2023-01-19T03:08:15.369Z,17.13
2023-01-19T03:10:55.223Z,11.27
2023-01-19T03:13:33.168Z,16.17
2023-01-19T03:16:10.408Z,13.37
2023-01-19T03:18:39.364Z,15.63
2023-01-19T03:21:10.042Z,15.60
2023-01-19T03:23:42.935Z,21.10
2023-01-19T03:26:19.182Z,13.87
2023-01-19T03:28:51.119Z,14.90
2023-01-19T03:31:22.312Z,16.50
2023-01-19T03:33:53.874Z,14.17
2023-01-19T03:36:30.610Z,13.27
2023-01-19T03:39:02.973Z,15.43
2023-01-19T03:41:35.603Z,13.70
2023-01-19T03:44:06.775Z,12.00
2023-01-19T03:46:40.507Z,14.50
2023-01-19T03:49:10.325Z,13.83
2023-01-19T03:51:40.469Z,16.40
2023-01-19T03:54:10.993Z,12.60
2023-01-19T03:56:40.660Z,15.57
2023-01-19T03:59:08.948Z,12.27
2023-01-19T04:01:37.923Z,17.60
2023-01-19T04:04:06.221Z,15.43
2023-01-19T04:06:34.422Z,15.20
2023-01-19T04:09:04.044Z,15.37
2023-01-19T04:11:32.320Z,15.93
2023-01-19T04:14:03.606Z,13.87
2023-01-19T04:16:32.010Z,18.80
2023-01-19T04:19:00.250Z,15.70
2023-01-19T04:21:29.038Z,18.60
2023-01-19T04:23:57.422Z,15.47
2023-01-19T04:26:25.634Z,14.90
2023-01-19T04:28:53.919Z,14.73
2023-01-19T04:31:24.978Z,12.33
2023-01-19T04:33:53.569Z,15.60
2023-01-19T04:36:24.311Z,15.77
2023-01-19T04:45:29.668Z,16.43
2023-01-19T04:48:02.518Z,15.13
2023-01-19T04:50:32.127Z,17.03
2023-01-19T04:53:01.705Z,12.37
2023-01-19T04:55:32.335Z,17.87
2023-01-19T05:01:57.423Z,15.37
2023-01-19T05:04:27.227Z,16.23
2023-01-19T05:06:58.970Z,17.00
2023-01-19T05:09:28.307Z,19.50
2023-01-19T05:11:56.543Z,16.03
2023-01-19T05:14:29.816Z,21.20
2023-01-19T05:17:00.909Z,15.67
2023-01-19T05:19:31.934Z,19.27
2023-01-19T05:22:00.473Z,15.37
2023-01-19T05:24:30.229Z,18.37
2023-01-19T05:26:59.270Z,15.70
2023-01-19T05:29:27.526Z,18.93
2023-01-19T05:31:55.999Z,18.17
2023-01-19T05:34:24.430Z,14.90
2023-01-19T05:37:00.965Z,20.53
2023-01-19T05:39:45.336Z,15.73
2023-01-19T05:42:15.373Z,15.00
2023-01-19T05:44:49.925Z,15.53
2023-01-19T05:47:33.419Z,14.20
2023-01-19T05:50:04.822Z,19.73
2023-01-19T05:56:53.909Z,17.53
2023-01-19T05:59:25.054Z,16.13
2023-01-19T06:01:53.948Z,15.20
2023-01-19T06:04:26.564Z,16.93
2023-01-19T06:06:56.198Z,17.10
2023-01-19T06:15:59.596Z,15.27
2023-01-19T06:18:28.320Z,17.30
2023-01-19T06:21:06.601Z,15.07
2023-01-19T06:23:39.857Z,16.00
2023-01-19T06:26:28.104Z,13.33
2023-01-19T06:28:57.762Z,17.10
2023-01-19T06:31:33.128Z,15.20
2023-01-19T06:34:16.041Z,14.00
2023-01-19T06:36:48.761Z,18.33
2023-01-19T06:42:48.000Z,15.83
2023-01-19T06:45:20.599Z,17.43
2023-01-19T06:47:51.223Z,15.77
2023-01-19T06:50:24.707Z,15.57
2023-01-19T06:52:55.142Z,13.77
2023-01-19T06:55:50.825Z,16.50
2023-01-19T06:59:25.526Z,18.43
2023-01-19T07:02:01.568Z,20.23
2023-01-19T07:04:53.359Z,17.27
2023-01-19T07:07:23.818Z,16.33
2023-01-19T07:10:24.088Z,22.57
2023-01-19T07:13:13.735Z,14.33
2023-01-19T07:15:45.682Z,14.60
2023-01-19T07:18:31.677Z,16.60
2023-01-19T07:21:01.882Z,16.83
2023-01-19T07:23:34.747Z,22.73
2023-01-19T07:26:05.914Z,15.83
2023-01-19T07:28:40.827Z,15.43
2023-01-19T07:31:19.180Z,17.67
2023-01-19T07:33:51.916Z,15.40
2023-01-19T07:36:27.532Z,19.30
2023-01-19T07:42:13.525Z,16.70
2023-01-19T07:48:02.371Z,17.67
2023-01-19T07:50:51.818Z,16.83
2023-01-19T07:53:40.352Z,15.37
2023-01-19T07:56:20.609Z,15.80
2023-01-19T07:58:50.454Z,17.30
2023-01-19T08:01:24.191Z,14.53
2023-01-19T08:03:54.206Z,15.07
2023-01-19T08:06:27.379Z,14.97
2023-01-19T08:09:10.609Z,14.70
2023-01-19T08:15:10.541Z,15.83
2023-01-19T08:18:04.449Z,14.07
2023-01-19T08:21:12.769Z,14.20
2023-01-19T08:24:25.206Z,16.53
2023-01-19T08:27:11.958Z,14.10
2023-01-19T08:29:52.421Z,11.90
2023-01-19T08:32:57.365Z,13.20
2023-01-19T08:35:31.485Z,10.93
2023-01-19T08:38:03.279Z,11.87
2023-01-19T08:40:40.446Z,10.90
2023-01-19T08:43:17.368Z,13.30
2023-01-19T08:46:12.707Z,8.90
2023-01-19T08:48:58.497Z,12.20
2023-01-19T08:51:28.686Z,10.73
2023-01-19T08:53:59.875Z,10.90
2023-01-19T08:56:32.200Z,11.10
2023-01-19T08:59:34.294Z,12.47
2023-01-19T09:02:11.269Z,10.30
2023-01-19T09:04:44.057Z,12.43
2023-01-19T09:07:15.899Z,10.60
2023-01-19T09:09:45.479Z,10.33
2023-01-19T09:12:38.857Z,12.13
2023-01-19T09:15:18.004Z,12.43
2023-01-19T09:17:46.552Z,10.23
2023-01-19T09:20:33.228Z,9.97
2023-01-19T09:26:18.719Z,11.03
2023-01-19T09:28:54.483Z,10.07
2023-01-19T09:31:24.327Z,9.93
2023-01-19T09:33:55.691Z,8.17
2023-01-19T09:36:24.297Z,9.00
2023-01-19T09:38:56.730Z,8.83
2023-01-19T09:41:27.627Z,12.17
2023-01-19T09:44:02.499Z,9.03
2023-01-19T09:46:39.414Z,10.53
2023-01-19T09:49:16.730Z,10.23
2023-01-19T09:51:48.798Z,9.67
2023-01-19T09:54:22.212Z,10.30
2023-01-19T09:57:04.584Z,10.10
2023-01-19T09:59:47.148Z,8.93
2023-01-19T10:02:37.402Z,10.90
2023-01-19T10:05:21.904Z,14.23
2023-01-19T10:08:19.985Z,9.20
2023-01-19T10:11:10.152Z,11.17
2023-01-19T10:13:45.177Z,17.80
2023-01-19T10:16:44.507Z,9.97
2023-01-19T10:19:26.579Z,13.33
2023-01-19T10:22:00.275Z,8.53
2023-01-19T10:24:52.835Z,15.73
2023-01-19T10:27:36.109Z,14.87
2023-01-19T10:30:11.041Z,11.90
2023-01-19T10:32:52.719Z,11.10
2023-01-19T10:35:25.391Z,13.47
2023-01-19T10:37:57.573Z,10.17
2023-01-19T10:40:36.926Z,9.43
2023-01-19T10:43:41.062Z,10.83
2023-01-19T10:46:18.667Z,9.20
2023-01-19T10:49:00.897Z,9.50
2023-01-19T10:51:36.711Z,9.60
2023-01-19T10:54:38.917Z,10.07
2023-01-19T10:57:20.491Z,8.10
2023-01-19T11:00:06.635Z,11.10
2023-01-19T11:02:52.735Z,9.97
2023-01-19T11:05:30.731Z,12.17
2023-01-19T11:08:02.143Z,8.73
2023-01-19T11:10:33.926Z,12.30
2023-01-19T11:13:21.209Z,16.13
2023-01-19T11:16:00.280Z,10.67
2023-01-19T11:18:31.595Z,10.67
2023-01-19T11:21:14.439Z,12.67
2023-01-19T11:24:00.807Z,10.23
2023-01-19T11:26:34.854Z,11.03
2023-01-19T11:29:06.278Z,10.03
2023-01-19T11:31:37.461Z,9.03
2023-01-19T11:34:28.119Z,10.43
2023-01-19T11:37:06.538Z,10.60
2023-01-19T11:39:47.753Z,11.70
2023-01-19T11:42:19.583Z,12.07
2023-01-19T11:45:11.208Z,11.83
2023-01-19T11:51:17.134Z,13.37
2023-01-19T11:53:56.018Z,15.17
2023-01-19T11:56:30.712Z,16.17
2023-01-19T11:59:00.446Z,15.37
2023-01-19T12:01:38.838Z,12.20
2023-01-19T12:04:17.095Z,14.20
2023-01-19T12:06:51.878Z,13.93
2023-01-19T12:13:05.962Z,14.57
2023-01-19T12:15:59.129Z,16.43
2023-01-19T12:18:46.976Z,15.40
2023-01-19T12:21:29.279Z,16.77
2023-01-19T12:24:13.349Z,16.43
2023-01-19T12:26:56.011Z,16.47
2023-01-19T12:30:01.402Z,16.77
2023-01-19T12:32:38.097Z,15.23
2023-01-19T12:35:29.332Z,15.90
2023-01-19T12:38:00.386Z,17.77
2023-01-19T12:40:35.238Z,13.60
2023-01-19T12:43:19.175Z,20.50
2023-01-19T12:45:51.528Z,17.70
2023-01-19T12:48:31.298Z,16.00
2023-01-19T12:51:04.578Z,13.87
2023-01-19T12:53:39.550Z,15.27
2023-01-19T12:56:20.477Z,15.13
2023-01-19T12:58:54.755Z,16.53
2023-01-19T13:01:29.187Z,14.63
2023-01-19T13:04:08.728Z,14.87
2023-01-19T13:07:10.617Z,19.03
2023-01-19T13:09:42.832Z,16.07
2023-01-19T13:12:22.608Z,20.20
2023-01-19T13:14:54.175Z,16.73
2023-01-19T13:17:35.288Z,16.33
2023-01-19T13:20:29.434Z,21.73
2023-01-19T13:23:23.875Z,15.17
2023-01-19T13:26:10.783Z,12.77
2023-01-19T13:28:45.835Z,14.30
2023-01-19T13:31:20.920Z,14.90
2023-01-19T13:33:53.087Z,16.77
2023-01-19T13:36:31.859Z,14.67
2023-01-19T13:42:39.772Z,16.67
2023-01-19T13:45:19.035Z,16.77
2023-01-19T13:51:18.137Z,18.07
2023-01-19T13:54:14.342Z,19.53
2023-01-19T13:56:47.997Z,16.27
2023-01-19T13:59:16.337Z,16.73
2023-01-19T14:01:46.613Z,18.10
2023-01-19T14:04:36.483Z,15.53
2023-01-19T14:07:15.098Z,15.73
2023-01-19T14:09:43.552Z,15.60
2023-01-19T14:12:58.957Z,15.33
2023-01-19T14:15:37.219Z,12.40
2023-01-19T14:18:27.993Z,19.13
2023-01-19T14:21:08.637Z,19.40
2023-01-19T14:23:43.921Z,15.90
2023-01-19T14:26:43.727Z,16.70
2023-01-19T14:29:18.982Z,13.33
2023-01-19T14:31:49.591Z,13.03
2023-01-19T14:34:39.208Z,16.27
2023-01-19T14:37:21.931Z,17.07
2023-01-19T14:40:04.934Z,14.27
2023-01-19T14:42:45.515Z,15.27
2023-01-19T14:51:59.355Z,18.27
2023-01-19T14:54:40.713Z,15.30
2023-01-19T14:57:50.144Z,15.60
2023-01-19T15:03:45.921Z,14.00
2023-01-19T15:06:41.202Z,15.47
2023-01-19T15:09:27.708Z,16.27
2023-01-19T15:12:26.874Z,15.43
2023-01-19T15:15:15.258Z,15.17
2023-01-19T15:17:45.780Z,25.90
2023-01-19T15:20:17.742Z,23.73
2023-01-19T15:22:46.979Z,21.33
2023-01-19T15:25:35.478Z,20.20
2023-01-19T15:28:12.808Z,17.07
2023-01-19T15:30:55.483Z,14.90
2023-01-19T15:33:25.905Z,16.90
2023-01-19T15:35:54.520Z,17.60
2023-01-19T15:38:41.275Z,16.30
2023-01-19T15:41:16.913Z,16.13
2023-01-19T15:43:52.354Z,17.33
2023-01-19T15:46:21.999Z,11.77
2023-01-19T15:48:51.891Z,14.07
2023-01-19T15:51:53.288Z,14.33
2023-01-19T15:54:22.221Z,16.23
2023-01-19T15:56:54.374Z,18.23
2023-01-19T15:59:26.128Z,16.10
2023-01-19T16:01:55.079Z,16.37
2023-01-19T16:04:45.099Z,14.80
2023-01-19T16:07:13.620Z,17.30
2023-01-19T16:09:50.667Z,17.37
2023-01-19T16:12:19.432Z,13.70
2023-01-19T16:15:11.210Z,18.03
2023-01-19T16:24:20.618Z,16.57
2023-01-19T16:27:26.610Z,17.83
2023-01-19T16:29:57.644Z,18.20
2023-01-19T16:32:26.050Z,13.87
2023-01-19T16:34:55.608Z,18.23
2023-01-19T16:38:10.269Z,20.97
2023-01-19T16:40:56.230Z,17.73
2023-01-19T16:43:34.168Z,16.83
2023-01-19T16:46:10.625Z,17.63
2023-01-19T16:48:43.531Z,17.47
2023-01-19T16:51:12.204Z,15.93
2023-01-19T16:53:40.516Z,18.97
2023-01-19T16:56:13.429Z,14.70
2023-01-19T16:58:41.927Z,14.10
2023-01-19T17:01:15.166Z,19.87
2023-01-19T17:04:18.641Z,16.30
2023-01-19T17:06:47.747Z,15.47
2023-01-19T17:09:20.984Z,20.50
2023-01-19T17:12:46.808Z,16.10
2023-01-19T17:15:18.985Z,18.97
2023-01-19T17:17:48.136Z,16.80
2023-01-19T17:20:19.034Z,17.93
2023-01-19T17:22:47.753Z,14.83
2023-01-19T17:28:29.344Z,17.43
2023-01-19T17:31:07.448Z,15.37
2023-01-19T17:33:36.828Z,17.47
2023-01-19T17:36:15.032Z,16.97
2023-01-19T17:41:52.869Z,16.43
2023-01-19T17:44:22.663Z,14.80
2023-01-19T17:46:58.049Z,15.37
2023-01-19T17:49:43.671Z,19.53
2023-01-19T17:52:17.890Z,15.70
2023-01-19T17:54:58.488Z,16.00
2023-01-19T17:57:31.658Z,14.13
2023-01-19T18:00:04.228Z,13.60
2023-01-19T18:02:36.509Z,13.00
2023-01-19T18:06:03.934Z,12.57
2023-01-19T18:08:36.378Z,11.90
2023-01-19T18:11:09.138Z,12.83
2023-01-19T18:17:14.112Z,11.93
2023-01-19T18:19:54.815Z,11.67
2023-01-19T18:22:23.279Z,12.17
2023-01-19T18:24:51.899Z,13.23
2023-01-19T18:27:21.957Z,15.90
2023-01-19T18:29:50.453Z,16.17
2023-01-19T18:32:18.780Z,11.50
2023-01-19T18:34:47.112Z,11.63
2023-01-19T18:37:34.873Z,16.57
2023-01-19T18:40:13.411Z,17.23
2023-01-19T18:42:51.240Z,14.43
2023-01-19T18:45:32.770Z,15.60
2023-01-19T18:48:12.539Z,13.57
2023-01-19T18:50:41.342Z,15.47
2023-01-19T18:53:13.565Z,16.60
2023-01-19T18:55:52.954Z,15.90
2023-01-19T18:58:22.013Z,19.00
2023-01-19T19:00:51.749Z,18.20
2023-01-19T19:03:29.542Z,21.13
2023-01-19T19:06:05.826Z,20.40
2023-01-19T19:08:36.588Z,19.97
2023-01-19T19:11:19.471Z,19.13
2023-01-19T19:13:56.047Z,20.63
2023-01-19T19:16:26.235Z,26.77
2023-01-19T19:18:57.623Z,28.77
2023-01-19T19:21:27.850Z,23.93
2023-01-19T19:23:59.825Z,21.57
2023-01-19T19:26:30.199Z,22.70
2023-01-19T19:28:58.680Z,25.13
2023-01-19T19:31:27.833Z,19.23
2023-01-19T19:33:57.370Z,21.73
2023-01-19T19:36:27.039Z,21.97
2023-01-19T19:39:01.305Z,27.70
2023-01-19T19:41:32.560Z,22.83
2023-01-19T19:44:07.077Z,24.93
2023-01-19T19:46:38.299Z,23.47
2023-01-19T19:49:15.498Z,25.40
2023-01-19T19:51:44.611Z,21.23
2023-01-19T19:54:29.867Z,26.73
2023-01-19T19:57:07.143Z,23.57
2023-01-19T19:59:45.365Z,24.97
2023-01-19T20:02:26.685Z,22.83
2023-01-19T20:04:55.249Z,24.57
2023-01-19T20:07:24.142Z,25.70
2023-01-19T20:09:55.312Z,23.90
2023-01-19T20:12:23.902Z,22.87
2023-01-19T20:14:52.278Z,22.67
2023-01-19T20:17:26.592Z,23.50
2023-01-19T20:20:05.293Z,22.93
2023-01-19T20:22:34.731Z,26.37
2023-01-19T20:25:06.767Z,24.27
2023-01-19T20:27:36.062Z,22.93
2023-01-19T20:30:06.003Z,24.30
2023-01-19T20:32:36.105Z,23.73
2023-01-19T20:35:14.316Z,24.97
2023-01-19T20:37:51.380Z,22.60
2023-01-19T20:40:22.588Z,22.80
2023-01-19T20:42:51.312Z,21.97
2023-01-19T20:45:21.116Z,22.40
2023-01-19T20:47:50.161Z,22.60
2023-01-19T20:50:23.116Z,25.43
2023-01-19T20:52:53.247Z,24.17
2023-01-19T20:55:23.960Z,24.13
2023-01-19T20:57:52.676Z,20.57
2023-01-19T21:00:27.843Z,25.27
2023-01-19T21:03:08.817Z,23.37
2023-01-19T21:05:44.794Z,23.70
2023-01-19T21:08:14.303Z,21.87
2023-01-19T21:10:59.363Z,48.80
2023-01-19T21:13:28.050Z,26.20
2023-01-19T21:15:56.708Z,26.00
2023-01-19T21:18:28.045Z,25.07
2023-01-19T21:20:57.505Z,26.80
2023-01-19T21:23:26.782Z,27.80
2023-01-19T21:26:05.992Z,24.60
2023-01-19T21:28:35.023Z,28.17
2023-01-19T21:31:07.661Z,25.23
2023-01-19T21:33:36.504Z,32.60
2023-01-19T21:36:06.537Z,26.33
2023-01-19T21:38:38.344Z,27.77
2023-01-19T21:41:15.253Z,28.47
2023-01-19T21:43:43.962Z,30.57
2023-01-19T21:46:14.931Z,25.67
2023-01-19T21:48:47.785Z,24.57
2023-01-19T21:51:16.788Z,25.37
2023-01-19T21:54:00.040Z,26.53
2023-01-19T21:56:31.888Z,31.40
2023-01-19T21:59:02.959Z,26.03
2023-01-19T22:01:32.284Z,28.30
2023-01-19T22:04:01.308Z,25.17
2023-01-19T22:06:30.546Z,26.83
2023-01-19T22:09:00.989Z,27.90
2023-01-19T22:11:31.412Z,24.20
2023-01-19T22:14:06.074Z,26.63
2023-01-19T22:16:48.949Z,31.80
2023-01-19T22:19:17.271Z,25.50
2023-01-19T22:21:45.829Z,24.17
2023-01-19T22:24:14.201Z,42.57
2023-01-19T22:26:44.277Z,29.17
2023-01-19T22:29:13.419Z,28.67
2023-01-19T22:31:43.207Z,28.93
2023-01-19T22:34:15.660Z,26.10
2023-01-19T22:36:45.671Z,27.23
2023-01-19T22:39:15.403Z,24.43
2023-01-19T22:41:48.171Z,24.73
2023-01-19T22:44:18.291Z,24.43
2023-01-19T22:46:53.589Z,23.60
2023-01-19T22:49:25.134Z,23.27
2023-01-19T22:51:55.898Z,29.60
2023-01-19T22:54:25.456Z,21.27
2023-01-19T22:56:56.573Z,23.40
2023-01-19T22:59:24.806Z,23.87
2023-01-19T23:01:54.560Z,24.47
2023-01-19T23:04:25.618Z,23.83
2023-01-19T23:06:53.978Z,24.07
2023-01-19T23:09:25.978Z,22.40
2023-01-19T23:11:57.051Z,29.00
2023-01-19T23:14:26.042Z,26.67
2023-01-19T23:17:05.628Z,23.60
2023-01-19T23:19:35.276Z,26.90
2023-01-19T23:22:07.976Z,28.77
2023-01-19T23:24:40.172Z,33.03
2023-01-19T23:27:18.337Z,28.40
2023-01-19T23:29:49.712Z,27.07
2023-01-19T23:32:19.265Z,32.73
2023-01-19T23:34:47.602Z,29.67
2023-01-19T23:37:17.372Z,25.00
2023-01-19T23:39:46.992Z,25.17
2023-01-19T23:42:19.151Z,26.60
2023-01-19T23:44:47.594Z,31.37
2023-01-19T23:47:49.747Z,27.47
2023-01-19T23:50:41.676Z,24.37
2023-01-19T23:53:10.030Z,24.47
2023-01-19T23:55:43.055Z,25.90
2023-01-19T23:58:13.829Z,25.83
